createdAt,value
2023-05-10T00:00:12.424Z,36.19
2023-05-10T00:01:12.485Z,36.19
2023-05-10T00:02:13.425Z,36.17
2023-05-10T00:03:12.767Z,36.17
2023-05-10T00:04:12.748Z,36.22
2023-05-10T00:05:12.802Z,36.21
2023-05-10T00:06:12.775Z,36.15
2023-05-10T00:07:12.824Z,36.16
2023-05-10T00:08:12.878Z,36.15
2023-05-10T00:09:12.908Z,36.17
2023-05-10T00:10:12.976Z,36.14
2023-05-10T00:11:12.998Z,36.17
2023-05-10T00:12:13.058Z,36.22
2023-05-10T00:13:13.137Z,36.20
2023-05-10T00:14:13.154Z,36.18
2023-05-10T00:15:13.245Z,36.18
2023-05-10T00:16:13.278Z,36.19
2023-05-10T00:17:13.283Z,36.19
2023-05-10T00:18:13.328Z,36.23
2023-05-10T00:19:13.388Z,36.17
2023-05-10T00:20:13.666Z,36.20
2023-05-10T00:21:13.438Z,36.15
2023-05-10T00:22:13.438Z,36.19
2023-05-10T00:23:13.476Z,36.18
2023-05-10T00:24:13.490Z,36.19
2023-05-10T00:25:13.519Z,36.19
2023-05-10T00:26:13.545Z,36.18
2023-05-10T00:27:13.610Z,36.16
2023-05-10T00:28:13.654Z,36.19
2023-05-10T00:29:13.693Z,36.19
2023-05-10T00:30:13.831Z,36.23
2023-05-10T00:31:13.784Z,36.19
2023-05-10T00:32:13.949Z,36.23
2023-05-10T00:33:13.894Z,36.20
2023-05-10T00:34:13.984Z,36.24
2023-05-10T00:35:13.975Z,36.22
2023-05-10T00:36:14.019Z,36.22
2023-05-10T00:37:14.050Z,36.20
2023-05-10T00:38:14.094Z,36.23
2023-05-10T00:39:14.128Z,36.15
2023-05-10T00:40:15.084Z,36.23
2023-05-10T00:41:14.221Z,36.23
2023-05-10T00:42:14.248Z,36.20
2023-05-10T00:43:14.292Z,36.23
2023-05-10T00:44:14.344Z,36.21
2023-05-10T00:45:14.849Z,36.21
2023-05-10T00:46:14.511Z,36.20
2023-05-10T00:47:14.516Z,36.21
2023-05-10T00:48:14.578Z,36.25
2023-05-10T00:49:14.633Z,36.24
2023-05-10T00:50:14.906Z,36.24
2023-05-10T00:51:14.762Z,36.20
2023-05-10T00:52:14.776Z,36.29
2023-05-10T00:53:14.842Z,36.22
2023-05-10T00:54:14.894Z,36.23
2023-05-10T00:55:14.947Z,36.24
2023-05-10T00:56:15.013Z,36.25
2023-05-10T00:57:15.072Z,36.27
2023-05-10T00:58:15.363Z,36.23
2023-05-10T00:59:15.191Z,36.25
2023-05-10T01:00:15.539Z,36.24
2023-05-10T01:01:15.317Z,36.23
2023-05-10T01:02:15.379Z,36.26
2023-05-10T01:03:15.450Z,36.24
2023-05-10T01:04:15.418Z,36.25
2023-05-10T01:05:15.515Z,36.24
2023-05-10T01:06:15.519Z,36.28
2023-05-10T01:07:15.577Z,36.23
2023-05-10T01:08:15.635Z,36.23
2023-05-10T01:09:15.689Z,36.30
2023-05-10T01:10:15.974Z,36.22
2023-05-10T01:11:15.803Z,36.26
2023-05-10T01:12:15.952Z,36.28
2023-05-10T01:13:15.992Z,36.21
2023-05-10T01:14:15.990Z,36.29
2023-05-10T01:15:16.052Z,36.29
2023-05-10T01:16:16.197Z,36.26
2023-05-10T01:17:16.174Z,36.29
2023-05-10T01:18:16.237Z,36.20
2023-05-10T01:19:16.303Z,36.30
2023-05-10T01:21:16.432Z,36.22
2023-05-10T01:22:16.616Z,36.20
2023-05-10T01:23:16.549Z,36.24
2023-05-10T01:24:16.616Z,36.19
2023-05-10T01:25:16.683Z,36.24
2023-05-10T01:26:16.747Z,36.22
2023-05-10T01:27:16.808Z,36.20
2023-05-10T01:28:16.864Z,36.19
2023-05-10T01:29:16.930Z,36.20
2023-05-10T01:30:16.989Z,36.23
2023-05-10T01:31:17.070Z,36.19
2023-05-10T01:32:17.094Z,36.24
2023-05-10T01:33:17.226Z,36.17
2023-05-10T01:34:17.231Z,36.22
2023-05-10T01:35:17.276Z,36.25
2023-05-10T01:36:17.347Z,36.21
2023-05-10T01:37:17.409Z,36.20
2023-05-10T01:38:17.467Z,36.22
2023-05-10T01:39:17.879Z,36.21
2023-05-10T01:40:17.667Z,36.17
2023-05-10T01:41:17.881Z,36.19
2023-05-10T01:42:18.370Z,36.20
2023-05-10T01:43:18.510Z,36.21
2023-05-10T01:44:17.820Z,36.22
2023-05-10T01:45:17.867Z,36.24
2023-05-10T01:46:17.986Z,36.24
2023-05-10T01:47:17.971Z,36.17
2023-05-10T01:48:18.022Z,36.18
2023-05-10T01:49:18.068Z,36.18
2023-05-10T01:50:18.321Z,36.16
2023-05-10T01:51:18.125Z,36.18
2023-05-10T01:52:18.136Z,36.20
2023-05-10T01:53:18.180Z,36.16
2023-05-10T01:54:18.184Z,36.21
2023-05-10T01:55:18.190Z,36.18
2023-05-10T01:56:18.285Z,36.20
2023-05-10T01:57:18.284Z,36.18
2023-05-10T01:58:18.308Z,36.15
2023-05-10T01:59:18.341Z,36.21
2023-05-10T02:00:18.549Z,36.15
2023-05-10T02:01:18.450Z,36.17
2023-05-10T02:02:18.463Z,36.17
2023-05-10T02:03:18.618Z,36.18
2023-05-10T02:04:18.583Z,36.17
2023-05-10T02:05:18.619Z,36.16
2023-05-10T02:06:18.683Z,36.12
2023-05-10T02:07:18.736Z,36.16
2023-05-10T02:08:18.774Z,36.13
2023-05-10T02:09:18.789Z,36.15
2023-05-10T02:10:19.043Z,36.15
2023-05-10T02:11:18.863Z,36.13
2023-05-10T02:12:19.385Z,36.17
2023-05-10T02:13:18.925Z,36.13
2023-05-10T02:14:18.934Z,36.13
2023-05-10T02:15:18.969Z,36.17
2023-05-10T02:16:19.029Z,36.11
2023-05-10T02:17:19.078Z,36.13
2023-05-10T02:18:19.132Z,36.13
2023-05-10T02:19:19.198Z,36.13
2023-05-10T02:20:19.374Z,36.11
2023-05-10T02:21:19.269Z,36.12
2023-05-10T02:22:19.353Z,36.16
2023-05-10T02:23:19.300Z,36.12
2023-05-10T02:24:19.353Z,36.11
2023-05-10T02:25:19.388Z,36.09
2023-05-10T02:26:19.419Z,36.09
2023-05-10T02:27:19.479Z,36.10
2023-05-10T02:28:19.480Z,36.10
2023-05-10T02:29:19.533Z,36.10
2023-05-10T02:30:19.568Z,36.09
2023-05-10T02:31:19.629Z,36.13
2023-05-10T02:32:19.670Z,36.10
2023-05-10T02:33:19.668Z,36.10
2023-05-10T02:34:19.714Z,36.06
2023-05-10T02:35:19.723Z,36.09
2023-05-10T02:36:19.774Z,36.10
2023-05-10T02:37:19.840Z,36.06
2023-05-10T02:38:19.879Z,36.06
2023-05-10T02:39:20.036Z,36.09
2023-05-10T02:40:20.068Z,36.08
2023-05-10T02:41:20.014Z,36.11
2023-05-10T02:42:20.042Z,36.05
2023-05-10T02:43:20.059Z,36.08
2023-05-10T02:44:20.114Z,36.06
2023-05-10T02:45:20.137Z,36.09
2023-05-10T02:46:20.162Z,36.08
2023-05-10T02:47:20.188Z,36.06
2023-05-10T02:48:20.208Z,36.05
2023-05-10T02:49:20.285Z,36.09
2023-05-10T02:50:20.310Z,36.14
2023-05-10T02:51:20.354Z,36.06
2023-05-10T02:52:20.404Z,36.04
2023-05-10T02:53:20.426Z,36.05
2023-05-10T02:54:20.487Z,36.04
2023-05-10T02:55:20.527Z,36.05
2023-05-10T02:56:20.568Z,36.02
2023-05-10T02:57:20.611Z,36.01
2023-05-10T02:58:20.652Z,36.03
2023-05-10T02:59:20.697Z,36.01
2023-05-10T03:00:21.418Z,36.02
2023-05-10T03:01:20.817Z,36.06
2023-05-10T03:02:20.839Z,36.06
2023-05-10T03:03:20.874Z,36.04
2023-05-10T03:04:20.921Z,36.05
2023-05-10T03:05:20.910Z,35.98
2023-05-10T03:06:21.043Z,36.05
2023-05-10T03:07:20.988Z,36.05
2023-05-10T03:08:21.036Z,36.04
2023-05-10T03:09:21.062Z,36.02
2023-05-10T03:10:21.087Z,36.01
2023-05-10T03:11:21.119Z,36.00
2023-05-10T03:12:21.119Z,36.02
2023-05-10T03:13:21.175Z,36.05
2023-05-10T03:14:21.138Z,35.99
2023-05-10T03:15:21.151Z,36.03
2023-05-10T03:16:21.176Z,36.04
2023-05-10T03:17:21.169Z,36.02
2023-05-10T03:18:21.168Z,36.01
2023-05-10T03:19:21.207Z,36.01
2023-05-10T03:20:21.217Z,36.05
2023-05-10T03:21:21.931Z,36.01
2023-05-10T03:22:21.288Z,36.01
2023-05-10T03:23:21.306Z,36.02
2023-05-10T03:24:21.342Z,36.00
2023-05-10T03:25:21.390Z,36.00
2023-05-10T03:26:21.437Z,35.98
2023-05-10T03:27:21.462Z,36.01
2023-05-10T03:28:21.501Z,35.95
2023-05-10T03:29:21.538Z,35.98
2023-05-10T03:30:21.534Z,36.00
2023-05-10T03:31:21.611Z,35.97
2023-05-10T03:32:21.586Z,35.95
2023-05-10T03:33:21.612Z,35.98
2023-05-10T03:34:21.704Z,35.95
2023-05-10T03:35:21.699Z,35.94
2023-05-10T03:36:21.693Z,35.94
2023-05-10T03:37:21.708Z,35.98
2023-05-10T03:38:21.733Z,35.93
2023-05-10T03:39:21.750Z,35.93
2023-05-10T03:40:21.743Z,35.89
2023-05-10T03:41:21.770Z,35.98
2023-05-10T03:42:21.768Z,35.94
2023-05-10T03:43:21.793Z,35.94
2023-05-10T03:44:21.815Z,35.94
2023-05-10T03:45:21.809Z,35.94
2023-05-10T03:46:21.839Z,35.97
2023-05-10T03:47:21.936Z,35.94
2023-05-10T03:48:21.845Z,35.93
2023-05-10T03:49:21.842Z,35.93
2023-05-10T03:50:21.859Z,35.90
2023-05-10T03:51:21.854Z,35.95
2023-05-10T03:52:21.867Z,35.90
2023-05-10T03:53:21.860Z,35.90
2023-05-10T03:54:21.940Z,35.93
2023-05-10T03:55:21.906Z,35.89
2023-05-10T03:56:21.916Z,35.93
2023-05-10T03:57:21.927Z,35.93
2023-05-10T03:58:21.930Z,35.87
2023-05-10T03:59:21.980Z,35.90
2023-05-10T04:00:21.978Z,35.95
2023-05-10T04:01:23.024Z,35.90
2023-05-10T04:02:22.223Z,35.88
2023-05-10T04:03:22.163Z,35.90
2023-05-10T04:04:22.036Z,35.86
2023-05-10T04:05:22.098Z,35.89
2023-05-10T04:06:22.168Z,35.89
2023-05-10T04:07:22.122Z,35.90
2023-05-10T04:08:22.123Z,35.87
2023-05-10T04:09:22.124Z,35.89
2023-05-10T04:10:22.163Z,35.89
2023-05-10T04:11:22.152Z,35.86
2023-05-10T04:12:22.148Z,35.85
2023-05-10T04:13:22.242Z,35.88
2023-05-10T04:14:22.158Z,35.88
2023-05-10T04:15:22.164Z,35.85
2023-05-10T04:16:22.197Z,35.85
2023-05-10T04:17:22.194Z,35.88
2023-05-10T04:18:22.174Z,35.84
2023-05-10T04:19:22.175Z,35.86
2023-05-10T04:20:22.168Z,35.86
2023-05-10T04:21:22.192Z,35.82
2023-05-10T04:22:22.182Z,35.86
2023-05-10T04:23:22.216Z,35.85
2023-05-10T04:24:22.184Z,35.86
2023-05-10T04:25:22.189Z,35.86
2023-05-10T04:26:22.185Z,35.84
2023-05-10T04:27:22.195Z,35.82
2023-05-10T04:28:22.200Z,35.87
2023-05-10T04:29:22.203Z,35.85
2023-05-10T04:30:22.213Z,35.84
2023-05-10T04:31:22.290Z,35.85
2023-05-10T04:32:22.285Z,35.81
2023-05-10T04:33:22.248Z,35.80
2023-05-10T04:34:22.369Z,35.77
2023-05-10T04:35:22.225Z,35.82
2023-05-10T04:36:22.331Z,35.82
2023-05-10T04:37:22.335Z,35.82
2023-05-10T04:38:22.342Z,35.78
2023-05-10T04:39:22.343Z,35.83
2023-05-10T04:40:22.337Z,35.82
2023-05-10T04:41:22.337Z,35.82
2023-05-10T04:42:22.413Z,35.81
2023-05-10T04:43:22.402Z,35.79
2023-05-10T04:44:22.397Z,35.82
2023-05-10T04:45:22.410Z,35.79
2023-05-10T04:46:22.464Z,35.78
2023-05-10T04:47:22.503Z,35.79
2023-05-10T04:48:22.467Z,35.81
2023-05-10T04:49:25.448Z,35.77
2023-05-10T04:50:22.454Z,35.81
2023-05-10T04:51:22.465Z,35.76
2023-05-10T04:52:22.446Z,35.80
2023-05-10T04:53:22.496Z,35.77
2023-05-10T04:54:22.426Z,35.79
2023-05-10T04:55:22.421Z,35.76
2023-05-10T04:56:22.417Z,35.76
2023-05-10T04:57:22.405Z,35.77
2023-05-10T04:58:22.407Z,35.79
2023-05-10T04:59:22.394Z,35.77
2023-05-10T05:00:22.403Z,35.77
2023-05-10T05:01:22.429Z,35.80
2023-05-10T05:02:22.423Z,35.78
2023-05-10T05:03:22.488Z,35.81
2023-05-10T05:04:22.360Z,35.76
2023-05-10T05:05:22.353Z,35.77
2023-05-10T05:06:22.354Z,35.77
2023-05-10T05:07:22.352Z,35.78
2023-05-10T05:08:22.329Z,35.77
2023-05-10T05:09:22.326Z,35.75
2023-05-10T05:10:22.328Z,35.71
2023-05-10T05:11:22.316Z,35.80
2023-05-10T05:12:22.323Z,35.74
2023-05-10T05:13:22.331Z,35.72
2023-05-10T05:14:22.309Z,35.74
2023-05-10T05:15:22.289Z,35.74
2023-05-10T05:16:22.391Z,35.73
2023-05-10T05:17:22.278Z,35.71
2023-05-10T05:18:22.280Z,35.71
2023-05-10T05:19:22.279Z,35.67
2023-05-10T05:20:22.276Z,35.68
2023-05-10T05:21:22.357Z,35.68
2023-05-10T05:22:22.268Z,35.68
2023-05-10T05:23:22.241Z,35.71
2023-05-10T05:24:22.245Z,35.68
2023-05-10T05:25:22.231Z,35.73
2023-05-10T05:26:22.226Z,35.85
2023-05-10T05:27:22.361Z,36.03
2023-05-10T05:28:22.206Z,36.13
2023-05-10T05:29:22.214Z,36.17
2023-05-10T05:30:22.203Z,36.36
2023-05-10T05:31:22.281Z,36.58
2023-05-10T05:32:22.186Z,36.84
2023-05-10T05:33:22.179Z,37.03
2023-05-10T05:34:22.884Z,37.38
2023-05-10T05:35:22.160Z,37.52
2023-05-10T05:36:22.154Z,37.68
2023-05-10T05:37:22.158Z,38.11
2023-05-10T05:38:22.140Z,38.22
2023-05-10T05:39:22.147Z,38.28
2023-05-10T05:40:22.116Z,38.60
2023-05-10T05:41:22.148Z,38.61
2023-05-10T05:42:22.118Z,38.81
2023-05-10T05:43:22.106Z,38.86
2023-05-10T05:44:22.093Z,39.02
2023-05-10T05:45:22.111Z,39.10
2023-05-10T05:46:22.098Z,39.21
2023-05-10T05:47:22.196Z,39.36
2023-05-10T05:48:22.100Z,39.38
2023-05-10T05:49:22.105Z,39.44
2023-05-10T05:50:22.042Z,39.39
2023-05-10T05:51:22.040Z,39.48
2023-05-10T05:52:22.039Z,39.53
2023-05-10T05:53:22.021Z,39.68
2023-05-10T05:54:22.024Z,39.64
2023-05-10T05:55:22.019Z,39.67
2023-05-10T05:56:22.011Z,39.69
2023-05-10T05:57:21.998Z,39.69
2023-05-10T05:58:22.004Z,39.77
2023-05-10T05:59:21.992Z,39.78
2023-05-10T06:00:21.997Z,39.84
2023-05-10T06:01:21.981Z,39.86
2023-05-10T06:02:22.077Z,40.03
2023-05-10T06:03:22.037Z,39.92
2023-05-10T06:04:22.061Z,40.04
2023-05-10T06:05:21.943Z,40.02
2023-05-10T06:06:21.945Z,40.01
2023-05-10T06:07:21.944Z,40.13
2023-05-10T06:08:21.945Z,40.25
2023-05-10T06:09:21.942Z,40.14
2023-05-10T06:10:21.917Z,40.29
2023-05-10T06:11:21.909Z,40.32
2023-05-10T06:12:22.603Z,40.41
2023-05-10T06:13:21.970Z,40.55
2023-05-10T06:14:21.909Z,40.53
2023-05-10T06:15:21.885Z,40.72
2023-05-10T06:16:21.952Z,40.60
2023-05-10T06:17:21.873Z,40.62
2023-05-10T06:18:21.872Z,40.60
2023-05-10T06:19:21.881Z,40.66
2023-05-10T06:20:21.934Z,40.75
2023-05-10T06:21:21.991Z,40.83
2023-05-10T06:22:22.031Z,40.69
2023-05-10T06:23:22.082Z,40.24
2023-05-10T06:24:22.144Z,39.74
2023-05-10T06:25:22.189Z,39.90
2023-05-10T06:26:22.212Z,39.22
2023-05-10T06:27:22.311Z,38.29
2023-05-10T06:28:22.248Z,36.69
2023-05-10T06:29:22.342Z,35.59
2023-05-10T06:30:22.313Z,35.28
2023-05-10T06:31:22.360Z,34.93
2023-05-10T06:32:22.383Z,35.26
2023-05-10T06:33:22.397Z,35.48
2023-05-10T06:34:22.404Z,35.71
2023-05-10T06:35:22.428Z,36.33
2023-05-10T06:36:22.456Z,36.47
2023-05-10T06:37:22.517Z,36.70
2023-05-10T06:38:22.543Z,36.84
2023-05-10T06:39:22.542Z,36.94
2023-05-10T06:40:22.568Z,37.45
2023-05-10T06:41:24.632Z,37.61
2023-05-10T06:42:22.666Z,37.73
2023-05-10T06:43:22.711Z,37.82
2023-05-10T06:44:23.010Z,37.92
2023-05-10T06:45:22.724Z,38.06
2023-05-10T06:46:22.810Z,38.12
2023-05-10T06:47:22.909Z,38.26
2023-05-10T06:48:23.454Z,38.33
2023-05-10T06:49:22.874Z,38.43
2023-05-10T06:50:22.897Z,38.39
2023-05-10T06:51:22.890Z,38.40
2023-05-10T06:52:22.887Z,38.51
2023-05-10T06:53:22.896Z,38.49
2023-05-10T06:54:22.957Z,35.28
2023-05-10T06:55:23.510Z,37.62
2023-05-10T06:56:23.007Z,40.25
2023-05-10T06:57:31.418Z,41.35
2023-05-10T06:58:24.052Z,41.47
2023-05-10T06:59:23.093Z,42.10
2023-05-10T07:00:23.106Z,42.16
2023-05-10T07:01:23.345Z,42.04
2023-05-10T07:02:23.158Z,41.80
2023-05-10T07:03:23.071Z,41.54
2023-05-10T07:04:23.083Z,41.27
2023-05-10T07:05:23.056Z,40.92
2023-05-10T07:06:33.101Z,40.49
2023-05-10T07:07:24.510Z,40.23
2023-05-10T07:08:22.975Z,39.95
2023-05-10T07:09:22.972Z,39.80
2023-05-10T07:10:22.964Z,39.53
2023-05-10T07:11:22.956Z,39.26
2023-05-10T07:12:23.039Z,39.16
2023-05-10T07:13:23.180Z,38.85
2023-05-10T07:14:22.930Z,38.59
2023-05-10T07:15:22.948Z,38.55
2023-05-10T07:16:23.015Z,38.26
2023-05-10T07:17:22.978Z,38.17
2023-05-10T07:18:22.929Z,38.33
2023-05-10T07:19:22.900Z,38.23
2023-05-10T07:20:22.874Z,38.20
2023-05-10T07:21:22.912Z,38.36
2023-05-10T07:22:23.512Z,38.29
2023-05-10T07:23:22.857Z,38.39
2023-05-10T07:24:22.858Z,38.29
2023-05-10T07:25:22.860Z,37.86
2023-05-10T07:26:22.840Z,37.73
2023-05-10T07:27:22.826Z,37.59
2023-05-10T07:28:22.825Z,37.60
2023-05-10T07:29:22.831Z,37.73
2023-05-10T07:30:22.849Z,37.51
2023-05-10T07:31:22.798Z,37.62
2023-05-10T07:32:22.973Z,37.36
2023-05-10T07:33:22.929Z,37.33
2023-05-10T07:34:22.857Z,36.93
2023-05-10T07:35:22.859Z,37.08
2023-05-10T07:36:22.869Z,36.84
2023-05-10T07:37:22.895Z,37.37
2023-05-10T07:38:22.983Z,37.07
2023-05-10T07:39:27.489Z,37.04
2023-05-10T07:40:23.937Z,37.31
2023-05-10T07:41:22.908Z,37.43
2023-05-10T07:42:22.898Z,37.52
2023-05-10T07:43:22.895Z,37.53
2023-05-10T07:44:22.880Z,37.54
2023-05-10T07:45:22.876Z,37.37
2023-05-10T07:46:22.913Z,37.41
2023-05-10T07:47:22.963Z,37.27
2023-05-10T07:48:22.881Z,37.12
2023-05-10T07:49:22.849Z,36.84
2023-05-10T07:50:22.833Z,37.16
2023-05-10T07:51:22.830Z,36.85
2023-05-10T07:52:23.047Z,36.94
2023-05-10T07:53:22.868Z,36.73
2023-05-10T07:54:22.814Z,36.62
2023-05-10T07:55:22.809Z,36.96
2023-05-10T07:56:22.811Z,36.66
2023-05-10T07:57:22.791Z,36.50
2023-05-10T07:58:22.832Z,36.39
2023-05-10T07:59:22.880Z,36.17
2023-05-10T08:00:22.944Z,36.55
2023-05-10T08:01:22.994Z,36.04
2023-05-10T08:02:23.099Z,36.26
2023-05-10T08:03:23.212Z,34.93
2023-05-10T08:04:23.187Z,34.58
2023-05-10T08:05:23.201Z,34.55
2023-05-10T08:06:23.209Z,34.23
2023-05-10T08:07:23.201Z,34.10
2023-05-10T08:08:23.212Z,34.32
2023-05-10T08:09:23.219Z,34.62
2023-05-10T08:10:23.235Z,34.50
2023-05-10T08:11:23.334Z,34.15
2023-05-10T08:12:23.321Z,34.41
2023-05-10T08:13:23.339Z,34.73
2023-05-10T08:14:23.488Z,34.80
2023-05-10T08:15:23.360Z,34.99
2023-05-10T08:16:23.481Z,34.83
2023-05-10T08:17:24.772Z,34.37
2023-05-10T08:18:23.478Z,34.03
2023-05-10T08:19:23.497Z,34.57
2023-05-10T08:20:23.549Z,34.68
2023-05-10T08:21:23.593Z,34.68
2023-05-10T08:22:23.607Z,34.97
2023-05-10T08:23:23.668Z,35.04
2023-05-10T08:24:23.713Z,35.03
2023-05-10T08:25:23.763Z,35.10
2023-05-10T08:26:23.805Z,35.23
2023-05-10T08:27:23.832Z,35.20
2023-05-10T08:28:24.533Z,35.16
2023-05-10T08:29:24.543Z,35.22
2023-05-10T08:30:23.888Z,35.36
2023-05-10T08:31:23.925Z,35.48
2023-05-10T08:32:23.914Z,35.51
2023-05-10T08:33:23.911Z,35.51
2023-05-10T08:34:24.055Z,35.52
2023-05-10T08:35:24.105Z,35.52
2023-05-10T08:36:24.033Z,35.56
2023-05-10T08:37:24.094Z,35.60
2023-05-10T08:38:24.131Z,35.55
2023-05-10T08:39:30.276Z,35.59
2023-05-10T08:40:25.191Z,35.61
2023-05-10T08:41:24.170Z,35.59
2023-05-10T08:42:24.181Z,35.58
2023-05-10T08:43:24.229Z,35.59
2023-05-10T08:44:24.164Z,35.58
2023-05-10T08:45:24.149Z,35.64
2023-05-10T08:46:24.225Z,35.64
2023-05-10T08:47:24.157Z,35.70
2023-05-10T08:48:24.118Z,35.71
2023-05-10T08:49:24.167Z,35.68
2023-05-10T08:50:24.113Z,35.73
2023-05-10T08:51:24.104Z,35.73
2023-05-10T08:52:24.115Z,35.78
2023-05-10T08:53:24.317Z,35.80
2023-05-10T08:54:24.087Z,35.80
2023-05-10T08:55:24.088Z,35.84
2023-05-10T08:56:24.073Z,35.86
2023-05-10T08:57:24.082Z,35.94
2023-05-10T08:58:24.064Z,35.91
2023-05-10T08:59:24.045Z,35.90
2023-05-10T09:00:24.100Z,35.92
2023-05-10T09:01:24.113Z,35.86
2023-05-10T09:02:24.098Z,35.84
2023-05-10T09:03:24.019Z,35.89
2023-05-10T09:04:24.109Z,35.89
2023-05-10T09:05:24.094Z,35.93
2023-05-10T09:06:24.002Z,36.01
2023-05-10T09:07:24.002Z,36.00
2023-05-10T09:08:23.981Z,35.99
2023-05-10T09:09:23.991Z,35.97
2023-05-10T09:10:24.058Z,35.90
2023-05-10T09:11:24.005Z,35.94
2023-05-10T09:12:24.005Z,35.97
2023-05-10T09:13:24.020Z,36.00
2023-05-10T09:14:24.053Z,36.04
2023-05-10T09:15:24.086Z,35.99
2023-05-10T09:16:24.156Z,35.96
2023-05-10T09:17:24.251Z,35.82
2023-05-10T09:18:25.980Z,35.33
2023-05-10T09:19:25.057Z,35.50
2023-05-10T09:20:24.253Z,35.60
2023-05-10T09:21:24.245Z,35.61
2023-05-10T09:22:24.230Z,35.66
2023-05-10T09:23:24.219Z,35.70
2023-05-10T09:24:24.211Z,35.79
2023-05-10T09:25:24.229Z,35.77
2023-05-10T09:26:24.211Z,35.78
2023-05-10T09:27:24.206Z,35.75
2023-05-10T09:28:24.192Z,35.78
2023-05-10T09:29:24.220Z,35.74
2023-05-10T09:30:24.197Z,35.75
2023-05-10T09:31:24.269Z,35.76
2023-05-10T09:32:24.207Z,35.74
2023-05-10T09:33:24.168Z,35.77
2023-05-10T09:34:24.178Z,35.73
2023-05-10T09:35:25.085Z,35.70
2023-05-10T09:36:25.071Z,35.78
2023-05-10T09:37:24.148Z,35.75
2023-05-10T09:38:24.127Z,35.76
2023-05-10T09:39:24.124Z,35.76
2023-05-10T09:40:24.130Z,35.73
2023-05-10T09:41:25.064Z,35.76
2023-05-10T09:42:25.070Z,35.74
2023-05-10T09:43:24.109Z,35.73
2023-05-10T09:44:24.110Z,35.73
2023-05-10T09:45:24.159Z,35.72
2023-05-10T09:46:24.189Z,35.73
2023-05-10T09:47:24.186Z,35.68
2023-05-10T09:48:24.148Z,35.69
2023-05-10T09:49:24.155Z,35.68
2023-05-10T09:50:24.566Z,35.71
2023-05-10T09:51:24.211Z,35.66
2023-05-10T09:52:24.222Z,35.70
2023-05-10T09:53:24.219Z,35.66
2023-05-10T09:54:24.252Z,35.71
2023-05-10T09:55:24.278Z,35.69
2023-05-10T09:56:24.263Z,35.66
2023-05-10T09:57:24.295Z,35.67
2023-05-10T09:58:24.307Z,35.67
2023-05-10T09:59:24.306Z,35.65
2023-05-10T10:00:25.074Z,35.63
2023-05-10T10:01:24.387Z,35.65
2023-05-10T10:02:24.440Z,35.65
2023-05-10T10:03:24.367Z,35.65
2023-05-10T10:04:24.426Z,35.66
2023-05-10T10:05:24.444Z,35.66
2023-05-10T10:06:29.968Z,35.66
2023-05-10T10:07:25.525Z,35.64
2023-05-10T10:08:24.425Z,35.63
2023-05-10T10:09:24.435Z,35.62
2023-05-10T10:10:24.412Z,35.55
2023-05-10T10:11:24.419Z,35.60
2023-05-10T10:12:24.416Z,35.62
2023-05-10T10:13:25.004Z,35.62
2023-05-10T10:14:24.384Z,35.60
2023-05-10T10:15:24.377Z,35.62
2023-05-10T10:16:24.386Z,35.64
2023-05-10T10:17:24.403Z,35.64
2023-05-10T10:18:24.380Z,35.63
2023-05-10T10:19:24.364Z,35.62
2023-05-10T10:20:24.386Z,35.60
2023-05-10T10:21:24.326Z,35.60
2023-05-10T10:22:24.325Z,35.64
2023-05-10T10:23:24.321Z,35.62
2023-05-10T10:24:24.314Z,35.62
2023-05-10T10:25:24.322Z,35.59
2023-05-10T10:26:24.340Z,35.56
2023-05-10T10:27:24.354Z,35.57
2023-05-10T10:28:25.392Z,35.56
2023-05-10T10:29:24.442Z,35.56
2023-05-10T10:30:24.459Z,35.51
2023-05-10T10:31:24.567Z,35.54
2023-05-10T10:32:25.126Z,35.55
2023-05-10T10:33:28.816Z,35.52
2023-05-10T10:34:24.521Z,35.52
2023-05-10T10:35:24.504Z,35.55
2023-05-10T10:36:24.505Z,35.54
2023-05-10T10:37:25.140Z,35.50
2023-05-10T10:38:24.489Z,35.52
2023-05-10T10:39:24.482Z,35.51
2023-05-10T10:40:24.473Z,35.54
2023-05-10T10:41:24.488Z,35.50
2023-05-10T10:42:24.462Z,35.49
2023-05-10T10:43:24.519Z,35.46
2023-05-10T10:44:24.506Z,35.45
2023-05-10T10:45:24.493Z,35.46
2023-05-10T10:46:24.528Z,35.49
2023-05-10T10:47:24.527Z,35.43
2023-05-10T10:48:24.395Z,35.47
2023-05-10T10:49:24.394Z,35.44
2023-05-10T10:50:24.393Z,35.45
2023-05-10T10:51:24.403Z,35.39
2023-05-10T10:52:24.414Z,35.39
2023-05-10T10:53:24.408Z,35.39
2023-05-10T10:54:24.376Z,35.39
2023-05-10T10:55:25.162Z,35.42
2023-05-10T10:56:24.360Z,35.35
2023-05-10T10:57:24.346Z,35.38
2023-05-10T10:58:25.111Z,35.38
2023-05-10T10:59:24.355Z,35.39
2023-05-10T11:00:24.326Z,35.35
2023-05-10T11:01:24.368Z,35.31
2023-05-10T11:02:24.382Z,35.31
2023-05-10T11:03:24.426Z,35.37
2023-05-10T11:04:24.481Z,35.35
2023-05-10T11:05:24.435Z,35.34
2023-05-10T11:06:24.614Z,35.31
2023-05-10T11:07:24.505Z,35.33
2023-05-10T11:08:24.528Z,35.34
2023-05-10T11:09:24.539Z,35.30
2023-05-10T11:10:24.554Z,35.34
2023-05-10T11:11:24.586Z,35.35
2023-05-10T11:12:24.614Z,35.38
2023-05-10T11:13:24.649Z,35.36
2023-05-10T11:14:24.682Z,35.41
2023-05-10T11:15:24.692Z,35.36
2023-05-10T11:16:24.890Z,35.38
2023-05-10T11:17:24.845Z,35.38
2023-05-10T11:18:24.791Z,35.42
2023-05-10T11:19:24.808Z,35.37
2023-05-10T11:20:24.806Z,35.37
2023-05-10T11:21:24.853Z,35.36
2023-05-10T11:22:24.856Z,35.38
2023-05-10T11:23:25.606Z,35.38
2023-05-10T11:24:24.881Z,35.37
2023-05-10T11:25:24.914Z,35.36
2023-05-10T11:26:24.934Z,35.35
2023-05-10T11:27:24.948Z,35.35
2023-05-10T11:28:25.011Z,35.37
2023-05-10T11:29:24.985Z,35.35
2023-05-10T11:30:25.018Z,35.33
2023-05-10T11:31:25.145Z,35.32
2023-05-10T11:32:25.167Z,35.35
2023-05-10T11:33:25.064Z,35.31
2023-05-10T11:34:25.121Z,35.34
2023-05-10T11:35:25.098Z,35.29
2023-05-10T11:36:25.130Z,35.28
2023-05-10T11:37:25.148Z,35.23
2023-05-10T11:38:25.176Z,35.28
2023-05-10T11:39:25.192Z,35.26
2023-05-10T11:40:25.218Z,35.27
2023-05-10T11:41:25.269Z,35.27
2023-05-10T11:42:25.271Z,35.31
2023-05-10T11:43:25.425Z,35.24
2023-05-10T11:44:25.339Z,35.24
2023-05-10T11:45:25.371Z,35.27
2023-05-10T11:46:25.444Z,35.26
2023-05-10T11:47:25.436Z,35.23
2023-05-10T11:48:25.438Z,35.22
2023-05-10T11:49:25.469Z,35.24
2023-05-10T11:50:25.500Z,35.23
2023-05-10T11:51:25.634Z,35.19
2023-05-10T11:52:25.569Z,35.18
2023-05-10T11:53:25.988Z,35.15
2023-05-10T11:54:25.622Z,35.18
2023-05-10T11:55:25.650Z,35.21
2023-05-10T11:56:25.706Z,35.19
2023-05-10T11:57:25.710Z,35.15
2023-05-10T11:58:25.734Z,35.18
2023-05-10T11:59:25.770Z,35.18
2023-05-10T12:00:25.799Z,35.18
2023-05-10T12:01:25.846Z,35.23
2023-05-10T12:02:25.978Z,35.19
2023-05-10T12:03:26.002Z,35.16
2023-05-10T12:04:25.929Z,35.13
2023-05-10T12:05:25.942Z,35.21
2023-05-10T12:06:25.986Z,35.12
2023-05-10T12:07:25.996Z,35.16
2023-05-10T12:08:26.016Z,35.16
2023-05-10T12:09:39.633Z,35.20
2023-05-10T12:10:27.044Z,35.17
2023-05-10T12:11:26.075Z,35.16
2023-05-10T12:12:26.036Z,35.16
2023-05-10T12:13:26.024Z,35.21
2023-05-10T12:14:26.628Z,35.12
2023-05-10T12:15:26.039Z,35.15
2023-05-10T12:16:26.039Z,35.17
2023-05-10T12:17:26.089Z,35.16
2023-05-10T12:18:26.008Z,35.17
2023-05-10T12:19:25.984Z,35.16
2023-05-10T12:20:26.080Z,35.12
2023-05-10T12:21:26.041Z,35.13
2023-05-10T12:22:25.982Z,35.13
2023-05-10T12:23:25.968Z,35.07
2023-05-10T12:24:25.973Z,35.12
2023-05-10T12:25:25.957Z,35.07
2023-05-10T12:26:25.987Z,35.11
2023-05-10T12:27:26.055Z,35.06
2023-05-10T12:28:26.053Z,34.99
2023-05-10T12:29:26.077Z,34.98
2023-05-10T12:30:26.649Z,34.99
2023-05-10T12:31:26.220Z,35.16
2023-05-10T12:32:26.257Z,35.17
2023-05-10T12:33:26.257Z,35.17
2023-05-10T12:34:26.303Z,35.14
2023-05-10T12:35:26.337Z,35.17
2023-05-10T12:36:26.373Z,35.18
2023-05-10T12:37:26.420Z,35.36
2023-05-10T12:38:26.464Z,35.50
2023-05-10T12:39:26.521Z,35.48
2023-05-10T12:40:26.564Z,35.55
2023-05-10T12:41:26.624Z,35.68
2023-05-10T12:42:26.660Z,35.75
2023-05-10T12:43:26.704Z,35.90
2023-05-10T12:44:26.781Z,35.94
2023-05-10T12:45:26.801Z,35.92
2023-05-10T12:46:26.919Z,35.92
2023-05-10T12:47:26.976Z,35.98
2023-05-10T12:48:26.912Z,35.95
2023-05-10T12:49:26.953Z,35.94
2023-05-10T12:50:26.999Z,35.93
2023-05-10T12:51:27.033Z,35.90
2023-05-10T12:52:27.093Z,35.86
2023-05-10T12:53:27.107Z,35.88